sensor_id;sensor_type;location;lat;lon;timestamp;P1;durP1;ratioP1;P2;durP2;ratioP2
6093;SDS011;19964;42.060;24.700;2022-07-03T00:02:23;9.83;;;9.00;;
6093;SDS011;19964;42.060;24.700;2022-07-03T00:04:50;10.80;;;9.70;;
6093;SDS011;19964;42.060;24.700;2022-07-03T00:07:17;10.00;;;9.20;;
6093;SDS011;19964;42.060;24.700;2022-07-03T00:09:45;10.80;;;9.93;;
6093;SDS011;19964;42.060;24.700;2022-07-03T00:12:12;12.57;;;9.20;;
6093;SDS011;19964;42.060;24.700;2022-07-03T00:14:39;11.00;;;9.90;;
6093;SDS011;19964;42.060;24.700;2022-07-03T00:17:05;14.67;;;9.83;;
6093;SDS011;19964;42.060;24.700;2022-07-03T00:19:32;11.07;;;10.07;;
6093;SDS011;19964;42.060;24.700;2022-07-03T00:22:01;10.87;;;9.87;;
6093;SDS011;19964;42.060;24.700;2022-07-03T00:24:32;10.67;;;9.60;;
6093;SDS011;19964;42.060;24.700;2022-07-03T00:27:06;10.40;;;9.53;;
6093;SDS011;19964;42.060;24.700;2022-07-03T00:29:36;11.43;;;10.07;;
6093;SDS011;19964;42.060;24.700;2022-07-03T00:32:04;10.63;;;9.47;;
6093;SDS011;19964;42.060;24.700;2022-07-03T00:34:35;10.37;;;9.57;;
6093;SDS011;19964;42.060;24.700;2022-07-03T00:37:03;10.47;;;9.57;;
6093;SDS011;19964;42.060;24.700;2022-07-03T00:39:33;10.53;;;9.57;;
6093;SDS011;19964;42.060;24.700;2022-07-03T00:42:03;11.17;;;10.20;;
6093;SDS011;19964;42.060;24.700;2022-07-03T00:44:34;10.53;;;9.67;;
6093;SDS011;19964;42.060;24.700;2022-07-03T00:47:04;10.40;;;9.50;;
6093;SDS011;19964;42.060;24.700;2022-07-03T00:49:32;10.40;;;9.40;;
6093;SDS011;19964;42.060;24.700;2022-07-03T00:52:02;10.20;;;9.37;;
6093;SDS011;19964;42.060;24.700;2022-07-03T00:54:32;10.50;;;9.50;;
6093;SDS011;19964;42.060;24.700;2022-07-03T00:56:59;10.03;;;9.13;;
6093;SDS011;19964;42.060;24.700;2022-07-03T00:59:30;10.23;;;9.40;;
6093;SDS011;19964;42.060;24.700;2022-07-03T01:01:59;10.93;;;9.87;;
6093;SDS011;19964;42.060;24.700;2022-07-03T01:04:34;10.53;;;9.63;;
6093;SDS011;19964;42.060;24.700;2022-07-03T01:07:06;10.63;;;9.53;;
6093;SDS011;19964;42.060;24.700;2022-07-03T01:09:42;10.73;;;9.83;;
6093;SDS011;19964;42.060;24.700;2022-07-03T01:12:23;10.43;;;9.33;;
6093;SDS011;19964;42.060;24.700;2022-07-03T01:15:03;9.93;;;9.13;;
6093;SDS011;19964;42.060;24.700;2022-07-03T01:17:37;10.27;;;9.47;;
6093;SDS011;19964;42.060;24.700;2022-07-03T01:20:05;10.80;;;9.80;;
6093;SDS011;19964;42.060;24.700;2022-07-03T01:22:34;9.90;;;9.20;;
6093;SDS011;19964;42.060;24.700;2022-07-03T01:25:14;10.83;;;9.77;;
6093;SDS011;19964;42.060;24.700;2022-07-03T01:30:39;10.90;;;9.93;;
6093;SDS011;19964;42.060;24.700;2022-07-03T01:33:08;10.70;;;9.80;;
6093;SDS011;19964;42.060;24.700;2022-07-03T01:35:36;10.60;;;9.70;;
6093;SDS011;19964;42.060;24.700;2022-07-03T01:38:06;11.00;;;9.90;;
6093;SDS011;19964;42.060;24.700;2022-07-03T01:40:35;9.70;;;8.90;;
6093;SDS011;19964;42.060;24.700;2022-07-03T01:43:04;10.67;;;9.57;;
6093;SDS011;19964;42.060;24.700;2022-07-03T01:45:36;10.57;;;9.63;;
6093;SDS011;19964;42.060;24.700;2022-07-03T01:48:09;10.27;;;9.27;;
6093;SDS011;19964;42.060;24.700;2022-07-03T01:50:38;10.23;;;9.50;;
6093;SDS011;19964;42.060;24.700;2022-07-03T01:53:07;10.43;;;9.53;;
6093;SDS011;19964;42.060;24.700;2022-07-03T01:55:38;10.13;;;9.33;;
6093;SDS011;19964;42.060;24.700;2022-07-03T01:58:06;10.57;;;9.67;;
6093;SDS011;19964;42.060;24.700;2022-07-03T02:00:38;10.70;;;9.80;;
6093;SDS011;19964;42.060;24.700;2022-07-03T02:03:08;9.83;;;9.13;;
6093;SDS011;19964;42.060;24.700;2022-07-03T02:05:38;10.30;;;9.40;;
6093;SDS011;19964;42.060;24.700;2022-07-03T02:08:12;9.70;;;8.87;;
6093;SDS011;19964;42.060;24.700;2022-07-03T02:10:52;10.67;;;9.60;;
6093;SDS011;19964;42.060;24.700;2022-07-03T02:13:30;9.03;;;8.43;;
6093;SDS011;19964;42.060;24.700;2022-07-03T02:16:05;9.40;;;8.60;;
6093;SDS011;19964;42.060;24.700;2022-07-03T02:18:35;9.27;;;8.43;;
6093;SDS011;19964;42.060;24.700;2022-07-03T02:21:04;9.63;;;8.70;;
6093;SDS011;19964;42.060;24.700;2022-07-03T02:23:41;9.27;;;8.53;;
6093;SDS011;19964;42.060;24.700;2022-07-03T02:26:12;10.40;;;9.50;;
6093;SDS011;19964;42.060;24.700;2022-07-03T02:28:49;9.77;;;9.07;;
6093;SDS011;19964;42.060;24.700;2022-07-03T02:31:23;10.20;;;9.23;;
6093;SDS011;19964;42.060;24.700;2022-07-03T02:33:51;9.83;;;8.83;;
6093;SDS011;19964;42.060;24.700;2022-07-03T02:36:23;8.93;;;8.17;;
6093;SDS011;19964;42.060;24.700;2022-07-03T02:38:54;11.43;;;8.67;;
6093;SDS011;19964;42.060;24.700;2022-07-03T02:41:27;9.03;;;8.27;;
6093;SDS011;19964;42.060;24.700;2022-07-03T02:44:01;8.77;;;8.07;;
6093;SDS011;19964;42.060;24.700;2022-07-03T02:46:34;11.63;;;8.43;;
6093;SDS011;19964;42.060;24.700;2022-07-03T02:49:20;9.33;;;8.53;;
6093;SDS011;19964;42.060;24.700;2022-07-03T02:52:10;8.77;;;8.07;;
6093;SDS011;19964;42.060;24.700;2022-07-03T02:54:42;9.57;;;8.83;;
6093;SDS011;19964;42.060;24.700;2022-07-03T02:57:11;9.60;;;8.57;;
6093;SDS011;19964;42.060;24.700;2022-07-03T02:59:44;9.00;;;8.30;;
6093;SDS011;19964;42.060;24.700;2022-07-03T03:02:23;9.27;;;8.40;;
6093;SDS011;19964;42.060;24.700;2022-07-03T03:05:03;9.87;;;9.00;;
6093;SDS011;19964;42.060;24.700;2022-07-03T03:07:34;8.80;;;8.20;;
6093;SDS011;19964;42.060;24.700;2022-07-03T03:10:09;10.03;;;9.13;;
6093;SDS011;19964;42.060;24.700;2022-07-03T03:12:41;9.17;;;8.30;;
6093;SDS011;19964;42.060;24.700;2022-07-03T03:15:12;8.97;;;8.27;;
6093;SDS011;19964;42.060;24.700;2022-07-03T03:17:41;9.50;;;8.70;;
6093;SDS011;19964;42.060;24.700;2022-07-03T03:20:10;9.37;;;8.47;;
6093;SDS011;19964;42.060;24.700;2022-07-03T03:22:48;9.07;;;8.40;;
6093;SDS011;19964;42.060;24.700;2022-07-03T03:25:24;8.60;;;8.00;;
6093;SDS011;19964;42.060;24.700;2022-07-03T03:27:51;9.17;;;8.07;;
6093;SDS011;19964;42.060;24.700;2022-07-03T03:30:18;8.70;;;7.90;;
6093;SDS011;19964;42.060;24.700;2022-07-03T03:32:47;9.50;;;8.60;;
6093;SDS011;19964;42.060;24.700;2022-07-03T03:35:14;8.90;;;7.93;;
6093;SDS011;19964;42.060;24.700;2022-07-03T03:37:40;8.83;;;8.03;;
6093;SDS011;19964;42.060;24.700;2022-07-03T03:40:08;8.57;;;7.87;;
6093;SDS011;19964;42.060;24.700;2022-07-03T03:42:36;9.07;;;8.37;;
6093;SDS011;19964;42.060;24.700;2022-07-03T03:45:03;8.80;;;8.13;;
6093;SDS011;19964;42.060;24.700;2022-07-03T03:47:31;9.03;;;7.87;;
6093;SDS011;19964;42.060;24.700;2022-07-03T03:50:02;9.37;;;8.17;;
6093;SDS011;19964;42.060;24.700;2022-07-03T03:52:29;8.40;;;7.70;;
6093;SDS011;19964;42.060;24.700;2022-07-03T03:54:56;8.37;;;7.77;;
6093;SDS011;19964;42.060;24.700;2022-07-03T03:57:24;8.60;;;7.90;;
6093;SDS011;19964;42.060;24.700;2022-07-03T03:59:51;8.50;;;7.70;;
6093;SDS011;19964;42.060;24.700;2022-07-03T04:02:18;8.37;;;7.77;;
6093;SDS011;19964;42.060;24.700;2022-07-03T04:04:45;8.63;;;8.00;;
6093;SDS011;19964;42.060;24.700;2022-07-03T04:07:13;11.10;;;7.90;;
6093;SDS011;19964;42.060;24.700;2022-07-03T04:09:40;9.00;;;8.10;;
6093;SDS011;19964;42.060;24.700;2022-07-03T04:12:07;8.53;;;7.70;;
6093;SDS011;19964;42.060;24.700;2022-07-03T04:14:34;8.57;;;7.97;;
6093;SDS011;19964;42.060;24.700;2022-07-03T04:17:01;8.30;;;7.60;;
6093;SDS011;19964;42.060;24.700;2022-07-03T04:19:28;8.90;;;8.20;;
6093;SDS011;19964;42.060;24.700;2022-07-03T04:21:55;8.40;;;7.70;;
6093;SDS011;19964;42.060;24.700;2022-07-03T04:24:24;8.43;;;7.80;;
6093;SDS011;19964;42.060;24.700;2022-07-03T04:26:51;8.70;;;7.43;;
6093;SDS011;19964;42.060;24.700;2022-07-03T04:29:17;8.30;;;7.60;;
6093;SDS011;19964;42.060;24.700;2022-07-03T04:31:44;9.30;;;7.47;;
6093;SDS011;19964;42.060;24.700;2022-07-03T04:34:11;7.60;;;7.10;;
6093;SDS011;19964;42.060;24.700;2022-07-03T04:36:38;8.10;;;7.50;;
6093;SDS011;19964;42.060;24.700;2022-07-03T04:39:05;7.60;;;6.78;;
6093;SDS011;19964;42.060;24.700;2022-07-03T04:41:33;7.45;;;6.88;;
6093;SDS011;19964;42.060;24.700;2022-07-03T04:44:00;7.15;;;6.70;;
6093;SDS011;19964;42.060;24.700;2022-07-03T04:46:26;8.95;;;8.13;;
6093;SDS011;19964;42.060;24.700;2022-07-03T04:48:53;7.45;;;6.97;;
6093;SDS011;19964;42.060;24.700;2022-07-03T04:51:20;7.70;;;7.07;;
6093;SDS011;19964;42.060;24.700;2022-07-03T04:53:47;7.88;;;7.22;;
6093;SDS011;19964;42.060;24.700;2022-07-03T04:56:13;7.85;;;6.93;;
6093;SDS011;19964;42.060;24.700;2022-07-03T04:58:42;7.63;;;6.90;;
6093;SDS011;19964;42.060;24.700;2022-07-03T05:01:09;7.20;;;6.70;;
6093;SDS011;19964;42.060;24.700;2022-07-03T05:03:36;8.65;;;6.75;;
6093;SDS011;19964;42.060;24.700;2022-07-03T05:06:03;7.18;;;6.50;;
6093;SDS011;19964;42.060;24.700;2022-07-03T05:08:30;7.00;;;6.60;;
6093;SDS011;19964;42.060;24.700;2022-07-03T05:10:57;7.70;;;7.05;;
6093;SDS011;19964;42.060;24.700;2022-07-03T05:13:25;7.15;;;6.65;;
6093;SDS011;19964;42.060;24.700;2022-07-03T05:15:53;7.93;;;7.03;;
6093;SDS011;19964;42.060;24.700;2022-07-03T05:18:20;7.47;;;6.85;;
6093;SDS011;19964;42.060;24.700;2022-07-03T05:20:47;7.93;;;7.22;;
6093;SDS011;19964;42.060;24.700;2022-07-03T05:23:14;9.27;;;8.38;;
6093;SDS011;19964;42.060;24.700;2022-07-03T05:25:40;9.35;;;7.60;;
6093;SDS011;19964;42.060;24.700;2022-07-03T05:28:08;8.32;;;7.63;;
6093;SDS011;19964;42.060;24.700;2022-07-03T05:30:35;9.20;;;8.38;;
6093;SDS011;19964;42.060;24.700;2022-07-03T05:33:03;9.60;;;8.80;;
6093;SDS011;19964;42.060;24.700;2022-07-03T05:35:30;9.88;;;8.98;;
6093;SDS011;19964;42.060;24.700;2022-07-03T05:37:57;9.38;;;8.55;;
6093;SDS011;19964;42.060;24.700;2022-07-03T05:40:23;9.40;;;8.65;;
6093;SDS011;19964;42.060;24.700;2022-07-03T05:42:50;9.10;;;8.40;;
6093;SDS011;19964;42.060;24.700;2022-07-03T05:45:18;10.07;;;9.18;;
6093;SDS011;19964;42.060;24.700;2022-07-03T05:47:45;9.52;;;8.57;;
6093;SDS011;19964;42.060;24.700;2022-07-03T05:50:13;9.32;;;8.55;;
6093;SDS011;19964;42.060;24.700;2022-07-03T05:52:40;9.57;;;8.68;;
6093;SDS011;19964;42.060;24.700;2022-07-03T05:55:07;9.95;;;9.15;;
6093;SDS011;19964;42.060;24.700;2022-07-03T05:57:34;9.50;;;8.73;;
6093;SDS011;19964;42.060;24.700;2022-07-03T06:00:01;10.02;;;8.57;;
6093;SDS011;19964;42.060;24.700;2022-07-03T06:02:30;10.10;;;9.27;;
6093;SDS011;19964;42.060;24.700;2022-07-03T06:04:56;10.73;;;9.15;;
6093;SDS011;19964;42.060;24.700;2022-07-03T06:07:24;9.95;;;9.23;;
6093;SDS011;19964;42.060;24.700;2022-07-03T06:09:51;12.05;;;8.82;;
6093;SDS011;19964;42.060;24.700;2022-07-03T06:12:18;10.88;;;8.73;;
6093;SDS011;19964;42.060;24.700;2022-07-03T06:14:45;9.20;;;8.30;;
6093;SDS011;19964;42.060;24.700;2022-07-03T06:17:12;9.38;;;8.57;;
6093;SDS011;19964;42.060;24.700;2022-07-03T06:19:39;9.80;;;8.80;;
6093;SDS011;19964;42.060;24.700;2022-07-03T06:22:05;9.98;;;9.00;;
6093;SDS011;19964;42.060;24.700;2022-07-03T06:24:34;9.20;;;8.40;;
6093;SDS011;19964;42.060;24.700;2022-07-03T06:27:00;10.10;;;9.00;;
6093;SDS011;19964;42.060;24.700;2022-07-03T06:29:27;9.85;;;8.85;;
6093;SDS011;19964;42.060;24.700;2022-07-03T06:31:54;9.65;;;8.95;;
6093;SDS011;19964;42.060;24.700;2022-07-03T06:34:21;9.02;;;8.23;;
6093;SDS011;19964;42.060;24.700;2022-07-03T06:36:47;9.05;;;8.35;;
6093;SDS011;19964;42.060;24.700;2022-07-03T06:39:14;10.13;;;8.57;;
6093;SDS011;19964;42.060;24.700;2022-07-03T06:41:42;10.60;;;8.85;;
6093;SDS011;19964;42.060;24.700;2022-07-03T06:44:09;10.02;;;9.02;;
6093;SDS011;19964;42.060;24.700;2022-07-03T06:46:36;9.98;;;9.00;;
6093;SDS011;19964;42.060;24.700;2022-07-03T06:49:03;9.05;;;8.25;;
6093;SDS011;19964;42.060;24.700;2022-07-03T06:51:29;9.27;;;8.40;;
6093;SDS011;19964;42.060;24.700;2022-07-03T06:53:58;8.75;;;8.15;;
6093;SDS011;19964;42.060;24.700;2022-07-03T06:56:25;8.90;;;8.40;;
6093;SDS011;19964;42.060;24.700;2022-07-03T06:58:53;8.93;;;8.32;;
6093;SDS011;19964;42.060;24.700;2022-07-03T07:01:20;9.70;;;8.80;;
6093;SDS011;19964;42.060;24.700;2022-07-03T07:03:47;8.88;;;8.27;;
6093;SDS011;19964;42.060;24.700;2022-07-03T07:06:13;8.77;;;8.07;;
6093;SDS011;19964;42.060;24.700;2022-07-03T07:08:40;9.25;;;8.32;;
6093;SDS011;19964;42.060;24.700;2022-07-03T07:11:07;9.07;;;8.23;;
6093;SDS011;19964;42.060;24.700;2022-07-03T07:13:34;8.68;;;7.90;;
6093;SDS011;19964;42.060;24.700;2022-07-03T07:16:02;8.77;;;8.07;;
6093;SDS011;19964;42.060;24.700;2022-07-03T07:18:29;8.60;;;7.85;;
6093;SDS011;19964;42.060;24.700;2022-07-03T07:20:56;8.23;;;7.55;;
6093;SDS011;19964;42.060;24.700;2022-07-03T07:23:23;8.50;;;7.60;;
6093;SDS011;19964;42.060;24.700;2022-07-03T07:25:49;8.32;;;7.68;;
6093;SDS011;19964;42.060;24.700;2022-07-03T07:28:16;9.23;;;7.72;;
6093;SDS011;19964;42.060;24.700;2022-07-03T07:30:43;9.40;;;8.43;;
6093;SDS011;19964;42.060;24.700;2022-07-03T07:33:11;8.68;;;7.65;;
6093;SDS011;19964;42.060;24.700;2022-07-03T07:35:38;8.30;;;7.63;;
6093;SDS011;19964;42.060;24.700;2022-07-03T07:38:05;8.80;;;7.97;;
6093;SDS011;19964;42.060;24.700;2022-07-03T07:40:32;8.25;;;7.55;;
6093;SDS011;19964;42.060;24.700;2022-07-03T07:42:58;8.85;;;7.80;;
6093;SDS011;19964;42.060;24.700;2022-07-03T07:45:25;7.97;;;7.28;;
6093;SDS011;19964;42.060;24.700;2022-07-03T07:47:52;9.90;;;6.68;;
6093;SDS011;19964;42.060;24.700;2022-07-03T07:50:20;7.80;;;7.03;;
6093;SDS011;19964;42.060;24.700;2022-07-03T07:52:47;7.82;;;7.10;;
6093;SDS011;19964;42.060;24.700;2022-07-03T07:55:13;7.47;;;6.78;;
6093;SDS011;19964;42.060;24.700;2022-07-03T07:57:40;7.60;;;7.10;;
6093;SDS011;19964;42.060;24.700;2022-07-03T08:00:08;8.15;;;7.35;;
6093;SDS011;19964;42.060;24.700;2022-07-03T08:02:36;7.72;;;7.03;;
6093;SDS011;19964;42.060;24.700;2022-07-03T08:05:22;7.60;;;6.88;;
6093;SDS011;19964;42.060;24.700;2022-07-03T08:08:01;7.78;;;7.05;;
6093;SDS011;19964;42.060;24.700;2022-07-03T08:10:28;7.75;;;7.13;;
6093;SDS011;19964;42.060;24.700;2022-07-03T08:12:55;7.65;;;7.10;;
6093;SDS011;19964;42.060;24.700;2022-07-03T08:15:22;6.88;;;6.47;;
6093;SDS011;19964;42.060;24.700;2022-07-03T08:17:49;6.88;;;6.28;;
6093;SDS011;19964;42.060;24.700;2022-07-03T08:20:16;7.10;;;6.53;;
6093;SDS011;19964;42.060;24.700;2022-07-03T08:22:44;9.40;;;6.38;;
6093;SDS011;19964;42.060;24.700;2022-07-03T08:25:10;7.15;;;6.35;;
6093;SDS011;19964;42.060;24.700;2022-07-03T08:27:37;7.72;;;6.80;;
6093;SDS011;19964;42.060;24.700;2022-07-03T08:30:05;7.10;;;6.65;;
6093;SDS011;19964;42.060;24.700;2022-07-03T08:32:32;7.45;;;6.85;;
6093;SDS011;19964;42.060;24.700;2022-07-03T08:34:59;7.40;;;6.80;;
6093;SDS011;19964;42.060;24.700;2022-07-03T08:37:26;12.18;;;6.82;;
6093;SDS011;19964;42.060;24.700;2022-07-03T08:39:54;7.30;;;6.60;;
6093;SDS011;19964;42.060;24.700;2022-07-03T08:42:21;6.93;;;6.43;;
6093;SDS011;19964;42.060;24.700;2022-07-03T08:44:49;7.50;;;6.85;;
6093;SDS011;19964;42.060;24.700;2022-07-03T08:47:18;9.15;;;7.07;;
6093;SDS011;19964;42.060;24.700;2022-07-03T08:49:45;8.50;;;6.85;;
6093;SDS011;19964;42.060;24.700;2022-07-03T08:52:13;7.07;;;6.60;;
6093;SDS011;19964;42.060;24.700;2022-07-03T08:54:40;7.88;;;6.82;;
6093;SDS011;19964;42.060;24.700;2022-07-03T08:57:08;7.18;;;6.78;;
6093;SDS011;19964;42.060;24.700;2022-07-03T08:59:37;7.53;;;6.80;;
6093;SDS011;19964;42.060;24.700;2022-07-03T09:02:05;6.78;;;6.15;;
6093;SDS011;19964;42.060;24.700;2022-07-03T09:04:32;7.38;;;6.82;;
6093;SDS011;19964;42.060;24.700;2022-07-03T09:07:00;7.53;;;6.60;;
6093;SDS011;19964;42.060;24.700;2022-07-03T09:09:27;8.77;;;6.25;;
6093;SDS011;19964;42.060;24.700;2022-07-03T09:11:54;6.97;;;6.13;;
6093;SDS011;19964;42.060;24.700;2022-07-03T09:14:22;6.53;;;6.03;;
6093;SDS011;19964;42.060;24.700;2022-07-03T09:16:49;6.75;;;6.07;;
6093;SDS011;19964;42.060;24.700;2022-07-03T09:19:19;6.65;;;6.07;;
6093;SDS011;19964;42.060;24.700;2022-07-03T09:22:07;6.50;;;6.00;;
6093;SDS011;19964;42.060;24.700;2022-07-03T09:24:51;6.93;;;6.38;;
6093;SDS011;19964;42.060;24.700;2022-07-03T09:27:19;7.22;;;6.63;;
6093;SDS011;19964;42.060;24.700;2022-07-03T09:29:57;7.82;;;6.30;;
6093;SDS011;19964;42.060;24.700;2022-07-03T09:32:25;7.38;;;6.70;;
6093;SDS011;19964;42.060;24.700;2022-07-03T09:35:13;7.15;;;6.20;;
6093;SDS011;19964;42.060;24.700;2022-07-03T09:37:47;7.55;;;6.70;;
6093;SDS011;19964;42.060;24.700;2022-07-03T09:40:14;8.75;;;5.97;;
6093;SDS011;19964;42.060;24.700;2022-07-03T09:42:52;6.25;;;5.75;;
6093;SDS011;19964;42.060;24.700;2022-07-03T09:45:25;6.32;;;5.93;;
6093;SDS011;19964;42.060;24.700;2022-07-03T09:47:52;6.45;;;6.03;;
6093;SDS011;19964;42.060;24.700;2022-07-03T09:50:19;6.50;;;5.95;;
6093;SDS011;19964;42.060;24.700;2022-07-03T09:52:46;7.18;;;6.45;;
6093;SDS011;19964;42.060;24.700;2022-07-03T09:55:15;6.30;;;5.80;;
6093;SDS011;19964;42.060;24.700;2022-07-03T09:57:44;6.60;;;5.97;;
6093;SDS011;19964;42.060;24.700;2022-07-03T10:00:14;6.60;;;6.03;;
6093;SDS011;19964;42.060;24.700;2022-07-03T10:02:54;9.60;;;6.65;;
6093;SDS011;19964;42.060;24.700;2022-07-03T10:05:26;8.43;;;5.90;;
6093;SDS011;19964;42.060;24.700;2022-07-03T10:07:55;7.05;;;6.45;;
6093;SDS011;19964;42.060;24.700;2022-07-03T10:10:23;6.97;;;6.32;;
6093;SDS011;19964;42.060;24.700;2022-07-03T10:12:52;8.32;;;6.20;;
6093;SDS011;19964;42.060;24.700;2022-07-03T10:15:21;7.53;;;6.90;;
6093;SDS011;19964;42.060;24.700;2022-07-03T10:17:49;6.68;;;6.03;;
6093;SDS011;19964;42.060;24.700;2022-07-03T10:20:26;7.03;;;6.53;;
6093;SDS011;19964;42.060;24.700;2022-07-03T10:22:55;7.80;;;6.93;;
6093;SDS011;19964;42.060;24.700;2022-07-03T10:25:22;8.57;;;6.55;;
6093;SDS011;19964;42.060;24.700;2022-07-03T10:27:49;7.68;;;6.85;;
6093;SDS011;19964;42.060;24.700;2022-07-03T10:30:17;6.97;;;6.32;;
6093;SDS011;19964;42.060;24.700;2022-07-03T10:32:46;13.48;;;6.82;;
6093;SDS011;19964;42.060;24.700;2022-07-03T10:35:14;7.93;;;6.90;;
6093;SDS011;19964;42.060;24.700;2022-07-03T10:37:49;7.45;;;6.72;;
6093;SDS011;19964;42.060;24.700;2022-07-03T10:40:32;6.53;;;6.00;;
6093;SDS011;19964;42.060;24.700;2022-07-03T10:43:25;8.15;;;6.30;;
6093;SDS011;19964;42.060;24.700;2022-07-03T10:46:11;7.10;;;6.43;;
6093;SDS011;19964;42.060;24.700;2022-07-03T10:48:58;7.50;;;6.80;;
6093;SDS011;19964;42.060;24.700;2022-07-03T10:51:27;6.80;;;6.25;;
6093;SDS011;19964;42.060;24.700;2022-07-03T11:02:38;9.25;;;6.50;;
6093;SDS011;19964;42.060;24.700;2022-07-03T11:05:10;7.05;;;5.97;;
6093;SDS011;19964;42.060;24.700;2022-07-03T11:10:35;7.00;;;6.30;;
6093;SDS011;19964;42.060;24.700;2022-07-03T11:13:15;9.00;;;5.95;;
6093;SDS011;19964;42.060;24.700;2022-07-03T11:15:47;8.98;;;6.57;;
6093;SDS011;19964;42.060;24.700;2022-07-03T11:21:10;7.32;;;6.72;;
6093;SDS011;19964;42.060;24.700;2022-07-03T11:27:16;6.95;;;6.45;;
6093;SDS011;19964;42.060;24.700;2022-07-03T11:29:49;9.75;;;6.90;;
6093;SDS011;19964;42.060;24.700;2022-07-03T11:38:11;8.63;;;6.38;;
6093;SDS011;19964;42.060;24.700;2022-07-03T11:40:41;7.20;;;6.60;;
6093;SDS011;19964;42.060;24.700;2022-07-03T11:43:11;9.82;;;6.68;;
6093;SDS011;19964;42.060;24.700;2022-07-03T11:45:38;6.65;;;6.25;;
6093;SDS011;19964;42.060;24.700;2022-07-03T11:48:06;7.50;;;6.78;;
6093;SDS011;19964;42.060;24.700;2022-07-03T11:50:38;7.10;;;6.60;;
6093;SDS011;19964;42.060;24.700;2022-07-03T11:53:15;7.63;;;7.03;;
6093;SDS011;19964;42.060;24.700;2022-07-03T11:55:47;7.55;;;7.03;;
6093;SDS011;19964;42.060;24.700;2022-07-03T11:58:16;9.23;;;7.03;;
6093;SDS011;19964;42.060;24.700;2022-07-03T12:00:42;6.80;;;6.40;;
6093;SDS011;19964;42.060;24.700;2022-07-03T12:03:13;8.07;;;7.28;;
6093;SDS011;19964;42.060;24.700;2022-07-03T12:08:25;8.80;;;7.20;;
6093;SDS011;19964;42.060;24.700;2022-07-03T12:11:00;9.98;;;7.47;;
6093;SDS011;19964;42.060;24.700;2022-07-03T12:13:30;7.82;;;7.32;;
6093;SDS011;19964;42.060;24.700;2022-07-03T12:19:00;8.00;;;7.35;;
6093;SDS011;19964;42.060;24.700;2022-07-03T12:21:34;8.13;;;7.20;;
6093;SDS011;19964;42.060;24.700;2022-07-03T12:24:09;10.00;;;7.63;;
6093;SDS011;19964;42.060;24.700;2022-07-03T12:26:36;9.30;;;7.03;;
6093;SDS011;19964;42.060;24.700;2022-07-03T12:29:05;7.97;;;7.38;;
6093;SDS011;19964;42.060;24.700;2022-07-03T12:31:34;8.05;;;7.45;;
6093;SDS011;19964;42.060;24.700;2022-07-03T12:34:01;7.80;;;7.13;;
6093;SDS011;19964;42.060;24.700;2022-07-03T12:36:28;7.70;;;7.05;;
6093;SDS011;19964;42.060;24.700;2022-07-03T12:38:56;10.55;;;7.30;;
6093;SDS011;19964;42.060;24.700;2022-07-03T12:41:25;11.73;;;7.53;;
6093;SDS011;19964;42.060;24.700;2022-07-03T12:43:53;8.02;;;7.30;;
6093;SDS011;19964;42.060;24.700;2022-07-03T12:46:22;9.30;;;7.40;;
6093;SDS011;19964;42.060;24.700;2022-07-03T12:48:51;9.27;;;7.30;;
6093;SDS011;19964;42.060;24.700;2022-07-03T12:54:05;14.05;;;7.05;;
6093;SDS011;19964;42.060;24.700;2022-07-03T12:56:32;7.70;;;7.05;;
6093;SDS011;19964;42.060;24.700;2022-07-03T12:59:00;7.45;;;6.75;;
6093;SDS011;19964;42.060;24.700;2022-07-03T13:01:46;7.35;;;6.70;;
6093;SDS011;19964;42.060;24.700;2022-07-03T13:04:29;8.88;;;7.10;;
6093;SDS011;19964;42.060;24.700;2022-07-03T13:07:01;8.10;;;7.32;;
6093;SDS011;19964;42.060;24.700;2022-07-03T13:09:29;7.78;;;6.80;;
6093;SDS011;19964;42.060;24.700;2022-07-03T13:11:56;8.35;;;7.57;;
6093;SDS011;19964;42.060;24.700;2022-07-03T13:14:23;7.72;;;7.13;;
6093;SDS011;19964;42.060;24.700;2022-07-03T13:16:52;8.60;;;7.22;;
6093;SDS011;19964;42.060;24.700;2022-07-03T13:19:20;7.60;;;6.85;;
6093;SDS011;19964;42.060;24.700;2022-07-03T13:21:49;7.90;;;6.93;;
6093;SDS011;19964;42.060;24.700;2022-07-03T13:24:18;7.88;;;7.00;;
6093;SDS011;19964;42.060;24.700;2022-07-03T13:26:46;7.63;;;7.03;;
6093;SDS011;19964;42.060;24.700;2022-07-03T13:29:14;7.40;;;6.80;;
6093;SDS011;19964;42.060;24.700;2022-07-03T13:31:41;7.95;;;7.20;;
6093;SDS011;19964;42.060;24.700;2022-07-03T13:34:09;7.93;;;7.13;;
6093;SDS011;19964;42.060;24.700;2022-07-03T13:36:36;11.52;;;7.20;;
6093;SDS011;19964;42.060;24.700;2022-07-03T13:39:03;7.30;;;6.70;;
6093;SDS011;19964;42.060;24.700;2022-07-03T13:41:33;7.63;;;7.00;;
6093;SDS011;19964;42.060;24.700;2022-07-03T13:44:00;8.05;;;7.25;;
6093;SDS011;19964;42.060;24.700;2022-07-03T13:46:27;7.38;;;6.88;;
6093;SDS011;19964;42.060;24.700;2022-07-03T13:48:53;7.00;;;6.40;;
6093;SDS011;19964;42.060;24.700;2022-07-03T13:51:22;7.65;;;6.97;;
6093;SDS011;19964;42.060;24.700;2022-07-03T13:53:48;8.75;;;7.30;;
6093;SDS011;19964;42.060;24.700;2022-07-03T13:56:16;8.40;;;7.57;;
6093;SDS011;19964;42.060;24.700;2022-07-03T13:58:44;7.70;;;7.10;;
6093;SDS011;19964;42.060;24.700;2022-07-03T14:01:11;7.38;;;6.82;;
6093;SDS011;19964;42.060;24.700;2022-07-03T14:03:38;8.13;;;7.35;;
6093;SDS011;19964;42.060;24.700;2022-07-03T14:06:04;8.07;;;6.90;;
6093;SDS011;19964;42.060;24.700;2022-07-03T14:08:33;7.78;;;7.07;;
6093;SDS011;19964;42.060;24.700;2022-07-03T14:11:00;8.80;;;7.65;;
6093;SDS011;19964;42.060;24.700;2022-07-03T14:13:27;7.50;;;6.90;;
6093;SDS011;19964;42.060;24.700;2022-07-03T14:15:53;7.13;;;6.63;;
6093;SDS011;19964;42.060;24.700;2022-07-03T14:18:20;8.05;;;7.28;;
6093;SDS011;19964;42.060;24.700;2022-07-03T14:20:48;9.20;;;6.97;;
6093;SDS011;19964;42.060;24.700;2022-07-03T14:23:14;8.02;;;7.00;;
6093;SDS011;19964;42.060;24.700;2022-07-03T14:25:43;10.10;;;6.75;;
6093;SDS011;19964;42.060;24.700;2022-07-03T14:28:10;11.52;;;6.65;;
6093;SDS011;19964;42.060;24.700;2022-07-03T14:30:54;7.30;;;6.70;;
6093;SDS011;19964;42.060;24.700;2022-07-03T14:33:38;7.32;;;6.82;;
6093;SDS011;19964;42.060;24.700;2022-07-03T14:36:05;7.00;;;6.50;;
6093;SDS011;19964;42.060;24.700;2022-07-03T14:38:32;7.35;;;6.72;;
6093;SDS011;19964;42.060;24.700;2022-07-03T14:41:00;7.30;;;6.80;;
6093;SDS011;19964;42.060;24.700;2022-07-03T14:43:27;8.13;;;7.25;;
6093;SDS011;19964;42.060;24.700;2022-07-03T14:45:54;8.15;;;7.45;;
6093;SDS011;19964;42.060;24.700;2022-07-03T14:48:21;8.55;;;7.30;;
6093;SDS011;19964;42.060;24.700;2022-07-03T14:50:48;9.98;;;7.30;;
6093;SDS011;19964;42.060;24.700;2022-07-03T14:53:14;8.48;;;7.00;;
6093;SDS011;19964;42.060;24.700;2022-07-03T14:55:41;7.13;;;6.43;;
6093;SDS011;19964;42.060;24.700;2022-07-03T14:58:15;7.20;;;6.70;;
6093;SDS011;19964;42.060;24.700;2022-07-03T15:00:46;7.72;;;6.82;;
6093;SDS011;19964;42.060;24.700;2022-07-03T15:03:18;7.80;;;7.00;;
6093;SDS011;19964;42.060;24.700;2022-07-03T15:05:54;7.03;;;6.32;;
6093;SDS011;19964;42.060;24.700;2022-07-03T15:11:16;7.88;;;6.18;;
6093;SDS011;19964;42.060;24.700;2022-07-03T15:14:05;8.60;;;6.55;;
6093;SDS011;19964;42.060;24.700;2022-07-03T15:16:34;7.10;;;6.70;;
6093;SDS011;19964;42.060;24.700;2022-07-03T15:19:01;7.10;;;6.50;;
6093;SDS011;19964;42.060;24.700;2022-07-03T15:21:29;7.18;;;6.68;;
6093;SDS011;19964;42.060;24.700;2022-07-03T15:23:59;12.73;;;7.20;;
6093;SDS011;19964;42.060;24.700;2022-07-03T15:26:28;6.75;;;6.35;;
6093;SDS011;19964;42.060;24.700;2022-07-03T15:28:57;6.85;;;6.45;;
6093;SDS011;19964;42.060;24.700;2022-07-03T15:34:59;6.57;;;6.13;;
6093;SDS011;19964;42.060;24.700;2022-07-03T15:37:34;6.85;;;6.10;;
6093;SDS011;19964;42.060;24.700;2022-07-03T15:40:21;6.72;;;6.22;;
6093;SDS011;19964;42.060;24.700;2022-07-03T15:43:24;7.20;;;6.68;;